Welcome to our Virtual Airline
Sign-in:

Flight MFC108101

  • Submitted By: James Smith
  • Departure Airport: Port Williams (KPR)
  • Arrival Airport: Kulik Lake (PAKL)
  • Aircraft: CESSNA 170 (N170MM)
  • Flight Time: 01.10.59
  • Date Submitted: 22/03/23
  • Route: NO STOPS
  • Status: Accepted
Flight Details
Gross Revenue:
(2 load / $ 83.00 per unit
$ 166.00
Fuel Cost:
(18.1437 fuel used @ 5.1 / unit)
$ 92.53

Additional Log Information:

View Log

[14:18] ----- Flight Opened -----
[14:18] Cigar Box - 1.1.4.0
[14:18] FS:
[14:18] FSUIPC: v7.213
[14:18] Flight Number: MFC108101
[14:18] FS Aircraft: Savage Shock Ultra Floats Asobo
[14:18] FS Model: TT:ATCCOM.AC_MODEL_SAVG
[14:18] FS Type: TT:ATCCOM.ATC_NAME_SAVA
[14:18] Departure: KPR
[14:18] Arrival: PAKL
[14:18] Flight Level: 2500
[14:18] Flight Type: H
[14:18] Passengers: 2
[14:18] FOB: 116 lbs
[14:18] Gate: n/a
[14:18] NOTE: Parking Brake Ignored
[14:18] Crash Detection: Disabled
[14:18] Crash Detection Aircraft: Disabled
[14:18] Engines: 1 Piston
[14:18] NOTE: Boarding has started
[14:18] Landing Gear: Retracted
[14:18] Light Data: Beacon ON
[14:18] Light Data: Strobe lights ON
[14:18] Main Door Closed
[14:18] COM1: 122.90
[14:18] COM2: 124.85
[14:18] Transponder: 7000
[14:18] NAV1: 110.50
[14:18] NAV2: 110.50
[14:18] ADF1: 890.0
[14:18] ADF2: 890.0
[14:18] Navigation Mode: NAV
[14:18] Engine 1: Started
[14:19] NOTE: Taxi started
[14:19] Flaps: Position 1
[14:19] NOTE: ----- TAKE OFF -----
[14:19] GS: 31 knots
[14:19] TAS: 32 knots
[14:19] IAS: 31 knots
[14:19] VS: 24 fpm
[14:19] FOB: 116 lbs
[14:19] Heading: 205°
[14:19] Pitch: 3°
[14:19] Bank: 0°
[14:19] Aircraft Weight: 1116.61 lbs
[14:19] Nearest Airport: KPR
[14:19] Distance: 0.13 miles
[14:19] Runway: ???
[14:19] Ground Surface: Water
[14:19] Ground Condition: Normal
[14:19] NOTE: Weather Report
[14:19] Wind Heading: 252°
[14:19] Wind Speed: 2 knots
[14:19] OAT: 15° C
[14:19] TAT: 15° C
[14:19] Precipitation: None
[14:19] Dew Point: 0° C
[14:19] Visibility: 85 miles
[14:19] METAR: KPRX 231756Z AUTO 29023G28KT 10SM CLR 13/M03 A2992 RMK AO2 PK WND 28029/1732 SLP150 T01331028 10133 20067 51005 KPRB 231753Z AUTO VRB03KT 10SM CLR 20/08 A3017 RMK AO2 SLP211 T02000083 10206 20061 58001 KPRG 231755Z AUTO 21022G29KT 7SM -RA SCT018 BKN045 OVC080 13/11 A2950 RMK AO2 P0001 60001 T01290111 10146 20116 KPRO 231755Z AUTO 34018G24KT 10SM OVC012 04/02 A2965 RMK AO2 T00400021 10040 20029 KPRC 231753Z 36007KT 10SM CLR 12/M13 A3031 RMK AO2 SLP231 T01171128 10117 20000 58002 KPRS 231755Z AUTO 28006KT 10SM SCT070 12/M01 A3025 RMK AO2 T01171009 10120 20053 KPRN 231558Z AUTO 24011KT 10SM CLR 19/13 A2981 RMK AO2 SLP042 T01940133
[14:19] NOTE: Climb started
[14:19] View Mode: Virtual Cockpit
[14:24] NOTE: TOC reached
[14:24] NOTE: Cruise started
[14:24] GS: 62 knots
[14:24] TAS: 67 knots
[14:24] IAS: 65 knots
[14:24] VS: 195 fpm
[14:24] FOB: 112 lbs
[14:24] Heading: 278°
[14:24] Pitch: 0°
[14:24] Bank: 0°
[14:24] Aircraft Weight: 1112.26 lbs
[14:24] Flaps: Position 0
[14:24] GS: 69 knots
[14:24] TAS: 74 knots
[14:24] IAS: 71 knots
[14:24] VS: -93 fpm
[14:24] NOTE: TOD reached
[14:24] NOTE: Descent started
[14:24] GS: 79 knots
[14:24] TAS: 86 knots
[14:24] IAS: 83 knots
[14:24] VS: -1120 fpm
[14:24] FOB: 112 lbs
[14:24] Heading: 272°
[14:24] Pitch: 5°
[14:24] Bank: 0°
[14:24] Aircraft Weight: 1112.32 lbs
[14:24] NOTE: On approach
[15:23] Flaps: Position 1
[15:23] GS: 60 knots
[15:23] TAS: 66 knots
[15:23] IAS: 64 knots
[15:23] VS: -697 fpm
[15:25] Flaps: Position 2
[15:25] GS: 50 knots
[15:25] TAS: 54 knots
[15:25] IAS: 54 knots
[15:25] VS: -232 fpm
[15:28] NOTE: ----- LANDED -----
[15:28] Landing Rate: -23.07 fpm
[15:28] GS: 36 knots
[15:28] TAS: 39 knots
[15:28] IAS: 39 knots
[15:28] VS: -20 fpm
[15:28] FOB: 76 lbs
[15:28] Heading: 246°
[15:28] Pitch: 0°
[15:28] Bank: 0°
[15:28] Aircraft Weight: 1076.84 lbs
[15:28] Nearest Airport: PAKL
[15:28] Distance: 0.17 miles
[15:28] Runway: 24 - LKK
[15:28] Ground Surface: Concrete
[15:28] Ground Condition: Normal
[15:28] NOTE: Weather Report
[15:28] Wind Heading: 271°
[15:28] Wind Speed: 2 knots
[15:28] OAT: 15° C
[15:28] TAT: 15° C
[15:28] Precipitation: None
[15:28] Dew Point: 0° C
[15:28] Visibility: 85 miles
[15:28] METAR:
[15:28] View Mode: Virtual Cockpit
[15:28] NOTE: Taxi started
[15:28] Flaps: Position 1
[15:29] Flaps: Position 0
[15:30] Parking Brake: Engaged
[15:30] NOTE: Arrived
[15:30] Engine 1: Stopped
[15:31] Gate: n/a
[15:31] NOTE: Flight Completed
[15:31] FS Aircraft: Savage Shock Ultra Floats Asobo
[15:31] FS Model: TT:ATCCOM.AC_MODEL_SAVG
[15:31] FS Type: TT:ATCCOM.ATC_NAME_SAVA
[15:31] FOB: 76 lbs
[15:31] Fuel Used: 40 lbs
[15:31] Flight Time: 01:10:59
[15:31] Flight Time (Dawn): 00:00:00
[15:31] Flight Time (Day): 01:10:59
[15:31] Flight Time (Dusk): 00:00:00
[15:31] Flight Time (Night): 00:00:00
[15:31] Total Landings: 1
[15:31] MaxSim Rate: 1x
[15:31] Cigar Box - 1.1.4.0
[15:31] ----- Flight Closed -----

Route Map